AUA555 LOWW-LIRF
Flight info
| Callsign | AUA555 |
|---|---|
| Flight time | N/A |
| Altitude | 30000 |
| Route | RUPET DCT GRZ DCT RADLY/N0432F360 DCT NIKOL/N0430F350 DCT ERDON DCT GOTMO DCT RITEB RITEB4C |
| Aircraft | A320/M-SDE3FGHIRWY/LB1 |
Departure
| Time | 2026-04-24 15:25 |
|---|---|
| Airport | Vienna International Airport (LOWW) |
Arrival
| Time | N/A |
|---|---|
| Airport | Rome–Fiumicino Leonardo da Vinci International Airport (LIRF) |
| Time | Latitude | Longitude | Altitude | Speed | Heading |
|---|---|---|---|---|---|
| 2026-04-24 15:04 | 48.11815 | 16.56508 | 608 ft | 0 kts | 26° |
| 2026-04-24 15:15 | 48.11812 | 16.56505 | 608 ft | 2 kts | 26° |
| 2026-04-24 15:15 | 48.11799 | 16.56496 | 608 ft | 2 kts | 26° |
| 2026-04-24 15:15 | 48.11785 | 16.56486 | 608 ft | 2 kts | 26° |
| 2026-04-24 15:15 | 48.11772 | 16.56476 | 608 ft | 2 kts | 26° |
| 2026-04-24 15:16 | 48.11758 | 16.56466 | 608 ft | 2 kts | 26° |
| 2026-04-24 15:16 | 48.11750 | 16.56459 | 608 ft | 2 kts | 26° |
| 2026-04-24 15:16 | 48.11735 | 16.56458 | 608 ft | 2 kts | 339° |
| 2026-04-24 15:16 | 48.11724 | 16.56471 | 608 ft | 1 kts | 302° |
| 2026-04-24 15:17 | 48.11721 | 16.56479 | 608 ft | 1 kts | 293° |
| 2026-04-24 15:17 | 48.11720 | 16.56483 | 608 ft | 0 kts | 296° |
| 2026-04-24 15:17 | 48.11720 | 16.56482 | 608 ft | 0 kts | 296° |
| 2026-04-24 15:19 | 48.11726 | 16.56462 | 608 ft | 3 kts | 296° |
| 2026-04-24 15:19 | 48.11743 | 16.56414 | 608 ft | 6 kts | 296° |
| 2026-04-24 15:19 | 48.11754 | 16.56334 | 608 ft | 9 kts | 254° |
| 2026-04-24 15:19 | 48.11698 | 16.56270 | 608 ft | 11 kts | 206° |
| 2026-04-24 15:20 | 48.11626 | 16.56204 | 608 ft | 10 kts | 212° |
| 2026-04-24 15:20 | 48.11561 | 16.56201 | 608 ft | 10 kts | 136° |
| 2026-04-24 15:20 | 48.11526 | 16.56302 | 608 ft | 11 kts | 116° |
| 2026-04-24 15:20 | 48.11486 | 16.56421 | 608 ft | 13 kts | 117° |
| 2026-04-24 15:21 | 48.11440 | 16.56563 | 608 ft | 16 kts | 116° |
| 2026-04-24 15:21 | 48.11383 | 16.56738 | 608 ft | 20 kts | 117° |
| 2026-04-24 15:21 | 48.11317 | 16.56940 | 608 ft | 23 kts | 116° |
| 2026-04-24 15:21 | 48.11248 | 16.57153 | 608 ft | 17 kts | 117° |
| 2026-04-24 15:22 | 48.11202 | 16.57236 | 608 ft | 10 kts | 163° |
| 2026-04-24 15:22 | 48.11169 | 16.57225 | 608 ft | 2 kts | 206° |
| 2026-04-24 15:22 | 48.11171 | 16.57227 | 608 ft | 0 kts | 205° |
| 2026-04-24 15:23 | 48.11132 | 16.57197 | 608 ft | 6 kts | 209° |
| 2026-04-24 15:23 | 48.11048 | 16.57125 | 608 ft | 1 kts | 255° |
| 2026-04-24 15:23 | 48.11052 | 16.57112 | 608 ft | 0 kts | 296° |
| 2026-04-24 15:24 | 48.11382 | 16.56096 | 608 ft | 118 kts | 296° |
| 2026-04-24 15:25 | 48.12155 | 16.53757 | 1093 ft | 163 kts | 294° |
| 2026-04-24 15:25 | 48.11304 | 16.50515 | 2526 ft | 180 kts | 218° |
| 2026-04-24 15:26 | 48.07919 | 16.46806 | 3424 ft | 227 kts | 238° |
| 2026-04-24 15:27 | 48.03838 | 16.41794 | 4918 ft | 272 kts | 221° |
| 2026-04-24 15:27 | 47.99306 | 16.36587 | 7184 ft | 280 kts | 224° |
| 2026-04-24 15:28 | 47.93112 | 16.29138 | 10119 ft | 295 kts | 224° |
| 2026-04-24 15:29 | 47.89873 | 16.25199 | 10986 ft | 321 kts | 224° |
| 2026-04-24 15:30 | 47.84560 | 16.18776 | 12830 ft | 337 kts | 223° |
| 2026-04-24 15:31 | 47.77735 | 16.10551 | 15043 ft | 351 kts | 222° |